Yuendumu, Australia
Current Conditions -  °F | °C
As of 9:00 PM on Thursday 23 Oct 2014 (Local Time) from YBAS Reporting Station
Clear Clear  
Wind Chill: 82°   Ceiling: Unl
Heat Index: 82°   Visibility: 6mi
Dew Point: 27°   Wind: 7mph
Humidity: 13%   Direction: 50°NE
Pressure: 30.03"   Gusts: NA
Location:  22.26°S, 131.8°E
Report Text: YBAS 231200Z AUTO 05006KT 9999 // NCD 28/M03 Q1017
Loading
Personal Weather Stations






























Interactive Weather Map
Tropical Storm Tracking
New forecast layout! Learn more

10-Day Weather Forecast

Advertisements
Track Severe Weather on mobile